createdAt,value
2016-05-03T00:00:21.208Z,1013.57
2016-05-03T00:01:21.211Z,1013.56
2016-05-03T00:02:21.011Z,1013.56
2016-05-03T00:03:20.998Z,1013.53
2016-05-03T00:04:21.001Z,1013.53
2016-05-03T00:05:21.191Z,1013.53
2016-05-03T00:06:20.991Z,1013.5
2016-05-03T00:07:20.993Z,1013.46
2016-05-03T00:08:21.184Z,1013.47
2016-05-03T00:09:21.186Z,1013.49
2016-05-03T00:10:20.971Z,1013.43
2016-05-03T00:11:20.988Z,1013.47
2016-05-03T00:12:21.179Z,1013.44
2016-05-03T00:13:20.963Z,1013.48
2016-05-03T00:14:21.168Z,1013.44
2016-05-03T00:15:21.156Z,1013.41
2016-05-03T00:16:21.159Z,1013.42
2016-05-03T00:17:21.161Z,1013.4
2016-05-03T00:18:21.148Z,1013.39
2016-05-03T00:19:21.151Z,1013.38
2016-05-03T00:20:21.138Z,1013.35
2016-05-03T00:21:21.140Z,1013.36
2016-05-03T00:22:21.143Z,1013.33
2016-05-03T00:23:21.131Z,1013.35
2016-05-03T00:24:20.930Z,1013.35
2016-05-03T00:25:20.934Z,1013.31
2016-05-03T00:26:20.921Z,1013.32
2016-05-03T00:27:21.127Z,1013.31
2016-05-03T00:28:20.941Z,1013.27
2016-05-03T00:29:20.912Z,1013.29
2016-05-03T00:30:21.107Z,1013.27
2016-05-03T00:31:21.109Z,1013.3
2016-05-03T00:32:21.113Z,1013.33
2016-05-03T00:33:20.897Z,1013.29
2016-05-03T00:34:20.884Z,1013.28
2016-05-03T00:35:21.089Z,1013.26
2016-05-03T00:36:20.890Z,1013.28
2016-05-03T00:37:20.876Z,1013.28
2016-05-03T00:38:21.085Z,1013.32
2016-05-03T00:39:20.869Z,1013.3
2016-05-03T00:40:21.074Z,1013.26
2016-05-03T00:41:21.062Z,1013.23
2016-05-03T00:42:20.861Z,1013.28
2016-05-03T00:43:21.083Z,1013.26
2016-05-03T00:44:21.054Z,1013.26
2016-05-03T00:45:20.854Z,1013.29
2016-05-03T00:46:20.840Z,1013.26
2016-05-03T00:47:20.843Z,1013.25
2016-05-03T00:48:20.831Z,1013.22
2016-05-03T00:49:20.834Z,1013.21
2016-05-03T00:50:20.836Z,1013.24
2016-05-03T00:51:20.823Z,1013.23
2016-05-03T00:52:20.826Z,1013.21
2016-05-03T00:53:20.828Z,1013.23
2016-05-03T00:54:21.019Z,1013.21
2016-05-03T00:55:20.818Z,1013.16
2016-05-03T00:56:21.024Z,1013.17
2016-05-03T00:57:21.011Z,1013.15
2016-05-03T00:58:21.014Z,1013.15
2016-05-03T00:59:21.000Z,1013.12
2016-05-03T01:00:21.003Z,1013.13
2016-05-03T01:01:20.991Z,1013.14
2016-05-03T01:02:20.993Z,1013.12
2016-05-03T01:03:20.778Z,1013.11
2016-05-03T01:04:20.983Z,1013.11
2016-05-03T01:05:20.985Z,1013.08
2016-05-03T01:06:20.973Z,1013.11
2016-05-03T01:07:20.975Z,1013.08
2016-05-03T01:08:20.963Z,1013.05
2016-05-03T01:09:20.965Z,1013.07
2016-05-03T01:10:20.969Z,1013.07
2016-05-03T01:11:20.954Z,1013.05
2016-05-03T01:12:20.755Z,1013.04
2016-05-03T01:13:20.960Z,1013.03
2016-05-03T01:14:20.947Z,1013.07
2016-05-03T01:15:20.732Z,1012.99
2016-05-03T01:16:20.937Z,1013.01
2016-05-03T01:17:20.721Z,1013.02
2016-05-03T01:18:20.926Z,1013
2016-05-03T01:19:20.930Z,1013.01
2016-05-03T01:20:20.917Z,1012.98
2016-05-03T01:21:20.920Z,1013.01
2016-05-03T01:22:21.547Z,1012.97
2016-05-03T01:23:20.909Z,1013.03
2016-05-03T01:24:20.912Z,1013.01
2016-05-03T01:25:20.899Z,1013.03
2016-05-03T01:26:20.901Z,1013.01
2016-05-03T01:27:20.686Z,1013.02
2016-05-03T01:28:20.892Z,1013.03
2016-05-03T01:29:20.691Z,1013.03
2016-05-03T01:30:20.678Z,1013.02
2016-05-03T01:31:20.883Z,1013.01
2016-05-03T01:32:20.668Z,1013.01
2016-05-03T01:33:20.874Z,1013.04
2016-05-03T01:34:20.673Z,1013.05
2016-05-03T01:35:20.661Z,1013.01
2016-05-03T01:36:20.882Z,1013.02
2016-05-03T01:37:20.650Z,1012.99
2016-05-03T01:38:20.872Z,1013.02
2016-05-03T01:39:20.843Z,1013
2016-05-03T01:40:20.846Z,1012.97
2016-05-03T01:41:20.630Z,1012.98
2016-05-03T01:42:20.836Z,1012.97
2016-05-03T01:43:20.838Z,1012.97
2016-05-03T01:44:20.825Z,1012.96
2016-05-03T01:45:20.624Z,1012.98
2016-05-03T01:46:20.830Z,1012.95
2016-05-03T01:47:20.615Z,1012.94
2016-05-03T01:48:20.821Z,1012.94
2016-05-03T01:49:20.604Z,1012.94
2016-05-03T01:50:20.607Z,1012.95
2016-05-03T01:51:20.798Z,1012.92
2016-05-03T01:52:21.081Z,1012.92
2016-05-03T01:53:20.788Z,1012.9
2016-05-03T01:54:20.790Z,1012.91
2016-05-03T01:55:20.792Z,1012.88
2016-05-03T01:56:20.780Z,1012.88
2016-05-03T01:57:20.782Z,1012.9
2016-05-03T01:58:20.769Z,1012.87
2016-05-03T01:59:20.569Z,1012.9
2016-05-03T02:00:20.572Z,1012.9
2016-05-03T02:01:20.762Z,1012.92
2016-05-03T02:02:20.561Z,1012.87
2016-05-03T02:03:20.751Z,1012.86
2016-05-03T02:04:20.551Z,1012.95
2016-05-03T02:05:20.742Z,1012.89
2016-05-03T02:06:20.542Z,1012.85
2016-05-03T02:07:20.746Z,1012.88
2016-05-03T02:08:20.734Z,1012.82
2016-05-03T02:09:20.736Z,1012.82
2016-05-03T02:10:20.724Z,1012.82
2016-05-03T02:11:20.727Z,1012.82
2016-05-03T02:12:20.510Z,1012.87
2016-05-03T02:13:20.716Z,1012.86
2016-05-03T02:14:20.703Z,1012.86
2016-05-03T02:15:20.705Z,1012.85
2016-05-03T02:16:20.708Z,1012.89
2016-05-03T02:17:20.711Z,1012.88
2016-05-03T02:18:20.495Z,1012.89
2016-05-03T02:19:20.701Z,1012.87
2016-05-03T02:20:20.688Z,1012.88
2016-05-03T02:21:20.691Z,1012.9
2016-05-03T02:22:20.646Z,1012.89
2016-05-03T02:23:20.680Z,1012.88
2016-05-03T02:24:20.667Z,1012.86
2016-05-03T02:25:20.670Z,1012.89
2016-05-03T02:26:20.657Z,1012.88
2016-05-03T02:27:20.660Z,1012.86
2016-05-03T02:28:20.662Z,1012.8
2016-05-03T02:29:20.650Z,1012.83
2016-05-03T02:30:20.653Z,1012.86
2016-05-03T02:31:20.640Z,1012.85
2016-05-03T02:32:20.439Z,1012.87
2016-05-03T02:33:20.425Z,1012.89
2016-05-03T02:34:20.429Z,1012.9
2016-05-03T02:35:20.619Z,1012.9
2016-05-03T02:36:20.419Z,1012.87
2016-05-03T02:37:20.624Z,1012.83
2016-05-03T02:38:20.409Z,1012.85
2016-05-03T02:39:20.614Z,1012.85
2016-05-03T02:40:20.600Z,1012.83
2016-05-03T02:41:20.603Z,1012.88
2016-05-03T02:42:20.403Z,1012.85
2016-05-03T02:43:20.594Z,1012.86
2016-05-03T02:44:20.597Z,1012.84
2016-05-03T02:45:20.583Z,1012.86
2016-05-03T02:46:20.383Z,1012.86
2016-05-03T02:47:20.574Z,1012.85
2016-05-03T02:48:20.372Z,1012.85
2016-05-03T02:49:20.563Z,1012.81
2016-05-03T02:50:20.362Z,1012.83
2016-05-03T02:51:20.569Z,1012.85
2016-05-03T02:52:20.352Z,1012.82
2016-05-03T02:53:20.558Z,1012.81
2016-05-03T02:54:20.546Z,1012.79
2016-05-03T02:55:20.330Z,1012.81
2016-05-03T02:56:20.535Z,1012.79
2016-05-03T02:57:20.335Z,1012.81
2016-05-03T02:58:20.541Z,1012.82
2016-05-03T02:59:20.324Z,1012.77
2016-05-03T03:00:20.530Z,1012.75
2016-05-03T03:01:20.517Z,1012.73
2016-05-03T03:02:20.301Z,1012.76
2016-05-03T03:03:20.304Z,1012.73
2016-05-03T03:04:20.510Z,1012.75
2016-05-03T03:05:20.497Z,1012.74
2016-05-03T03:06:20.500Z,1012.7
2016-05-03T03:07:20.487Z,1012.7
2016-05-03T03:08:20.489Z,1012.68
2016-05-03T03:09:20.288Z,1012.69
2016-05-03T03:10:20.479Z,1012.67
2016-05-03T03:11:20.481Z,1012.67
2016-05-03T03:12:20.469Z,1012.66
2016-05-03T03:13:20.471Z,1012.67
2016-05-03T03:14:20.256Z,1012.7
2016-05-03T03:15:20.461Z,1012.68
2016-05-03T03:16:20.448Z,1012.65
2016-05-03T03:17:20.451Z,1012.63
2016-05-03T03:18:20.235Z,1012.62
2016-05-03T03:19:20.441Z,1012.66
2016-05-03T03:20:20.427Z,1012.61
2016-05-03T03:21:20.430Z,1012.56
2016-05-03T03:22:20.433Z,1012.55
2016-05-03T03:23:20.217Z,1012.55
2016-05-03T03:24:20.423Z,1012.52
2016-05-03T03:25:20.410Z,1012.55
2016-05-03T03:26:20.209Z,1012.5
2016-05-03T03:27:20.399Z,1012.55
2016-05-03T03:28:20.402Z,1012.54
2016-05-03T03:29:20.405Z,1012.53
2016-05-03T03:30:20.393Z,1012.53
2016-05-03T03:31:20.396Z,1012.52
2016-05-03T03:32:20.179Z,1012.49
2016-05-03T03:33:20.198Z,1012.5
2016-05-03T03:34:20.387Z,1012.46
2016-05-03T03:35:20.374Z,1012.41
2016-05-03T03:36:20.362Z,1012.39
2016-05-03T03:37:20.364Z,1012.39
2016-05-03T03:38:20.367Z,1012.38
2016-05-03T03:39:20.354Z,1012.38
2016-05-03T03:40:20.153Z,1012.39
2016-05-03T03:41:20.140Z,1012.39
2016-05-03T03:42:20.143Z,1012.42
2016-05-03T03:43:20.131Z,1012.45
2016-05-03T03:44:20.337Z,1012.39
2016-05-03T03:45:20.135Z,1012.44
2016-05-03T03:46:20.341Z,1012.45
2016-05-03T03:47:20.313Z,1012.47
2016-05-03T03:48:20.113Z,1012.44
2016-05-03T03:49:20.115Z,1012.4
2016-05-03T03:50:20.306Z,1012.4
2016-05-03T03:51:20.105Z,1012.38
2016-05-03T03:52:20.295Z,1012.39
2016-05-03T03:53:20.297Z,1012.39
2016-05-03T03:54:20.285Z,1012.43
2016-05-03T03:55:20.084Z,1012.46
2016-05-03T03:56:20.291Z,1012.46
2016-05-03T03:57:20.074Z,1012.45
2016-05-03T03:58:20.279Z,1012.44
2016-05-03T03:59:20.267Z,1012.43
2016-05-03T04:00:20.051Z,1012.45
2016-05-03T04:01:20.257Z,1012.43
2016-05-03T04:02:20.260Z,1012.45
2016-05-03T04:03:20.043Z,1012.42
2016-05-03T04:04:20.046Z,1012.44
2016-05-03T04:05:20.252Z,1012.43
2016-05-03T04:06:20.037Z,1012.44
2016-05-03T04:07:21.320Z,1012.46
2016-05-03T04:08:20.025Z,1012.47
2016-05-03T04:09:20.028Z,1012.47
2016-05-03T04:10:20.218Z,1012.46
2016-05-03T04:11:20.221Z,1012.44
2016-05-03T04:12:20.209Z,1012.47
2016-05-03T04:13:20.212Z,1012.45
2016-05-03T04:14:20.197Z,1012.42
2016-05-03T04:15:19.997Z,1012.44
2016-05-03T04:16:20.203Z,1012.41
2016-05-03T04:17:20.191Z,1012.44
2016-05-03T04:18:20.194Z,1012.44
2016-05-03T04:19:19.977Z,1012.46
2016-05-03T04:20:19.964Z,1012.43
2016-05-03T04:21:19.971Z,1012.45
2016-05-03T04:22:20.020Z,1012.43
2016-05-03T04:23:20.258Z,1012.39
2016-05-03T04:24:20.307Z,1012.43
2016-05-03T04:25:20.138Z,1012.4
2016-05-03T04:26:20.386Z,1012.4
2016-05-03T04:27:20.187Z,1012.43
2016-05-03T04:28:20.205Z,1012.45
2016-05-03T04:29:20.210Z,1012.49
2016-05-03T04:30:20.229Z,1012.51
2016-05-03T04:31:20.247Z,1012.52
2016-05-03T04:32:20.239Z,1012.58
2016-05-03T04:33:20.452Z,1012.58
2016-05-03T04:34:20.446Z,1012.57
2016-05-03T04:35:20.251Z,1012.59
2016-05-03T04:36:20.462Z,1012.6
2016-05-03T04:37:20.249Z,1012.59
2016-05-03T04:38:20.441Z,1012.64
2016-05-03T04:39:20.445Z,1012.65
2016-05-03T04:40:20.436Z,1012.72
2016-05-03T04:41:20.441Z,1012.82
2016-05-03T04:42:20.444Z,1012.96
2016-05-03T04:43:20.432Z,1013.03
2016-05-03T04:44:20.216Z,1013.03
2016-05-03T04:45:20.220Z,1013.02
2016-05-03T04:46:20.426Z,1012.96
2016-05-03T04:47:20.414Z,1013.04
2016-05-03T04:48:20.417Z,1013.03
2016-05-03T04:49:20.404Z,1013.08
2016-05-03T04:50:20.407Z,1013.15
2016-05-03T04:51:20.395Z,1013.16
2016-05-03T04:52:20.398Z,1013.12
2016-05-03T04:53:20.400Z,1013.12
2016-05-03T04:54:20.184Z,1013.18
2016-05-03T04:55:20.374Z,1013.18
2016-05-03T04:56:20.174Z,1013.19
2016-05-03T04:57:20.161Z,1013.22
2016-05-03T04:58:20.367Z,1013.22
2016-05-03T04:59:20.167Z,1013.25
2016-05-03T05:00:20.356Z,1013.25
2016-05-03T05:01:20.140Z,1013.24
2016-05-03T05:02:20.143Z,1013.26
2016-05-03T05:03:20.349Z,1013.25
2016-05-03T05:04:20.133Z,1013.26
2016-05-03T05:05:20.339Z,1013.29
2016-05-03T05:06:20.325Z,1013.28
2016-05-03T05:07:20.328Z,1013.28
2016-05-03T05:08:20.128Z,1013.28
2016-05-03T05:09:20.115Z,1013.31
2016-05-03T05:10:20.305Z,1013.32
2016-05-03T05:11:20.105Z,1013.31
2016-05-03T05:12:20.295Z,1013.33
2016-05-03T05:13:20.094Z,1013.33
2016-05-03T05:14:20.300Z,1013.4
2016-05-03T05:15:20.100Z,1013.45
2016-05-03T05:16:20.087Z,1013.46
2016-05-03T05:17:20.074Z,1013.5
2016-05-03T05:18:20.077Z,1013.55
2016-05-03T05:19:20.266Z,1013.55
2016-05-03T05:20:20.066Z,1013.5
2016-05-03T05:21:20.257Z,1013.5
2016-05-03T05:22:20.260Z,1013.5
2016-05-03T05:23:20.059Z,1013.52
2016-05-03T05:24:20.249Z,1013.48
2016-05-03T05:25:20.033Z,1013.51
2016-05-03T05:26:20.035Z,1013.55
2016-05-03T05:27:20.038Z,1013.55
2016-05-03T05:28:20.228Z,1013.6
2016-05-03T05:29:20.012Z,1013.63
2016-05-03T05:30:20.015Z,1013.61
2016-05-03T05:31:20.206Z,1013.62
2016-05-03T05:32:20.208Z,1013.72
2016-05-03T05:33:20.195Z,1013.72
2016-05-03T05:34:19.995Z,1013.75
2016-05-03T05:35:20.200Z,1013.79
2016-05-03T05:36:20.187Z,1013.79
2016-05-03T05:37:19.972Z,1013.8
2016-05-03T05:38:19.974Z,1013.81
2016-05-03T05:39:20.181Z,1013.83
2016-05-03T05:40:20.167Z,1013.86
2016-05-03T05:41:19.966Z,1013.92
2016-05-03T05:42:19.953Z,1013.93
2016-05-03T05:43:20.160Z,1013.91
2016-05-03T05:44:20.146Z,1013.95
2016-05-03T05:45:19.946Z,1013.98
2016-05-03T05:46:20.136Z,1013.96
2016-05-03T05:47:20.139Z,1014.01
2016-05-03T05:48:20.126Z,1014
2016-05-03T05:49:19.926Z,1014.05
2016-05-03T05:50:20.116Z,1014.08
2016-05-03T05:51:20.119Z,1014.03
2016-05-03T05:52:20.105Z,1014.05
2016-05-03T05:53:19.905Z,1014.06
2016-05-03T05:54:20.096Z,1014.08
2016-05-03T05:55:19.895Z,1014.12
2016-05-03T05:56:20.085Z,1014.09
2016-05-03T05:57:19.885Z,1014.13
2016-05-03T05:58:20.090Z,1014.2
2016-05-03T05:59:19.874Z,1014.18
2016-05-03T06:00:20.065Z,1014.15
2016-05-03T06:01:20.067Z,1014.19
2016-05-03T06:02:20.070Z,1014.19
2016-05-03T06:03:20.056Z,1014.19
2016-05-03T06:04:20.045Z,1014.23
2016-05-03T06:05:19.845Z,1014.24
2016-05-03T06:06:20.034Z,1014.25
2016-05-03T06:07:20.083Z,1014.24
2016-05-03T06:08:19.836Z,1014.29
2016-05-03T06:09:20.026Z,1014.25
2016-05-03T06:10:20.029Z,1014.27
2016-05-03T06:11:19.814Z,1014.29
2016-05-03T06:12:20.003Z,1014.27
2016-05-03T06:13:20.005Z,1014.3
2016-05-03T06:14:19.806Z,1014.34
2016-05-03T06:15:19.996Z,1014.36
2016-05-03T06:16:19.780Z,1014.38
2016-05-03T06:17:19.783Z,1014.46
2016-05-03T06:18:19.989Z,1014.44
2016-05-03T06:19:19.975Z,1014.46
2016-05-03T06:20:19.775Z,1014.49
2016-05-03T06:21:19.762Z,1014.5
2016-05-03T06:22:19.968Z,1014.5
2016-05-03T06:23:19.955Z,1014.51
2016-05-03T06:24:19.739Z,1014.51
2016-05-03T06:25:19.741Z,1014.54
2016-05-03T06:26:19.743Z,1014.58
2016-05-03T06:27:19.732Z,1014.55
2016-05-03T06:28:19.734Z,1014.57
2016-05-03T06:29:19.721Z,1014.56
2016-05-03T06:30:19.927Z,1014.59
2016-05-03T06:31:19.710Z,1014.58
2016-05-03T06:32:19.917Z,1014.56
2016-05-03T06:33:19.716Z,1014.59
2016-05-03T06:34:19.906Z,1014.59
2016-05-03T06:35:19.893Z,1014.62
2016-05-03T06:36:19.896Z,1014.66
2016-05-03T06:37:20.290Z,1014.68
2016-05-03T06:38:19.682Z,1014.7
2016-05-03T06:39:19.873Z,1014.72
2016-05-03T06:40:19.672Z,1014.77
2016-05-03T06:41:19.659Z,1014.77
2016-05-03T06:42:19.865Z,1014.78
2016-05-03T06:43:19.868Z,1014.78
2016-05-03T06:44:19.855Z,1014.77
2016-05-03T06:45:19.654Z,1014.79
2016-05-03T06:46:19.844Z,1014.77
2016-05-03T06:47:19.628Z,1014.81
2016-05-03T06:48:19.835Z,1014.85
2016-05-03T06:49:19.838Z,1014.84
2016-05-03T06:50:19.824Z,1014.83
2016-05-03T06:51:19.811Z,1014.86
2016-05-03T06:52:19.814Z,1014.83
2016-05-03T06:53:19.598Z,1014.83
2016-05-03T06:54:19.804Z,1014.89
2016-05-03T06:55:19.790Z,1014.93
2016-05-03T06:56:19.794Z,1014.93
2016-05-03T06:57:19.796Z,1015
2016-05-03T06:58:19.783Z,1015.02
2016-05-03T06:59:19.786Z,1015.05
2016-05-03T07:00:19.773Z,1015.05
2016-05-03T07:01:19.573Z,1015.05
2016-05-03T07:02:19.560Z,1015.06
2016-05-03T07:03:19.750Z,1015.11
2016-05-03T07:04:19.753Z,1015.15
2016-05-03T07:05:19.740Z,1015.2
2016-05-03T07:06:19.743Z,1015.19
2016-05-03T07:07:19.729Z,1015.19
2016-05-03T07:08:19.732Z,1015.18
2016-05-03T07:09:19.719Z,1015.17
2016-05-03T07:10:19.519Z,1015.2
2016-05-03T07:11:19.709Z,1015.26
2016-05-03T07:12:19.712Z,1015.3
2016-05-03T07:13:19.699Z,1015.36
2016-05-03T07:14:19.701Z,1015.35
2016-05-03T07:15:19.486Z,1015.33
2016-05-03T07:16:19.488Z,1015.32
2016-05-03T07:17:19.678Z,1015.32
2016-05-03T07:18:19.681Z,1015.34
2016-05-03T07:19:19.683Z,1015.38
2016-05-03T07:20:19.671Z,1015.39
2016-05-03T07:21:19.658Z,1015.44
2016-05-03T07:22:19.458Z,1015.41
2016-05-03T07:23:19.444Z,1015.42
2016-05-03T07:24:19.463Z,1015.41
2016-05-03T07:25:19.450Z,1015.42
2016-05-03T07:26:19.437Z,1015.44
2016-05-03T07:27:19.627Z,1015.48
2016-05-03T07:28:19.629Z,1015.51
2016-05-03T07:29:19.617Z,1015.51
2016-05-03T07:30:19.416Z,1015.49
2016-05-03T07:31:19.607Z,1015.52
2016-05-03T07:32:19.407Z,1015.47
2016-05-03T07:33:19.596Z,1015.44
2016-05-03T07:34:19.599Z,1015.4
2016-05-03T07:35:19.398Z,1015.44
2016-05-03T07:36:19.385Z,1015.41
2016-05-03T07:37:19.373Z,1015.41
2016-05-03T07:38:19.375Z,1015.43
2016-05-03T07:39:19.566Z,1015.46
2016-05-03T07:40:19.365Z,1015.47
2016-05-03T07:41:19.556Z,1015.49
2016-05-03T07:42:19.559Z,1015.52
2016-05-03T07:43:19.545Z,1015.53
2016-05-03T07:44:19.548Z,1015.58
2016-05-03T07:45:19.534Z,1015.59
2016-05-03T07:46:19.334Z,1015.62
2016-05-03T07:47:19.525Z,1015.65
2016-05-03T07:48:19.528Z,1015.65
2016-05-03T07:49:19.514Z,1015.72
2016-05-03T07:50:19.517Z,1015.72
2016-05-03T07:51:19.301Z,1015.77
2016-05-03T07:52:19.507Z,1015.75
2016-05-03T07:53:19.291Z,1015.72
2016-05-03T07:54:19.497Z,1015.81
2016-05-03T07:55:19.484Z,1015.79
2016-05-03T07:56:19.486Z,1015.8
2016-05-03T07:57:19.473Z,1015.81
2016-05-03T07:58:19.476Z,1015.86
2016-05-03T07:59:19.463Z,1015.87
2016-05-03T08:00:19.263Z,1015.89
2016-05-03T08:01:19.453Z,1015.93
2016-05-03T08:02:19.253Z,1015.92
2016-05-03T08:03:19.443Z,1015.92
2016-05-03T08:04:19.430Z,1015.93
2016-05-03T08:05:19.433Z,1015.93
2016-05-03T08:06:19.420Z,1015.91
2016-05-03T08:07:19.423Z,1015.91
2016-05-03T08:08:19.426Z,1015.91
2016-05-03T08:09:19.412Z,1015.92
2016-05-03T08:10:19.195Z,1016
2016-05-03T08:11:19.402Z,1015.97
2016-05-03T08:12:19.404Z,1015.98
2016-05-03T08:13:19.391Z,1016.03
2016-05-03T08:14:19.395Z,1016.05
2016-05-03T08:15:19.178Z,1016.04
2016-05-03T08:16:19.165Z,1016.02
2016-05-03T08:17:19.371Z,1016.09
2016-05-03T08:18:19.155Z,1016.07
2016-05-03T08:19:19.361Z,1016.08
2016-05-03T08:20:19.347Z,1016.14
2016-05-03T08:21:19.147Z,1016.12
2016-05-03T08:22:19.338Z,1016.09
2016-05-03T08:23:19.137Z,1016.12
2016-05-03T08:24:19.124Z,1016.12
2016-05-03T08:25:19.330Z,1016.13
2016-05-03T08:26:19.114Z,1016.14
2016-05-03T08:27:19.116Z,1016.16
2016-05-03T08:28:19.322Z,1016.17
2016-05-03T08:29:19.310Z,1016.2
2016-05-03T08:30:19.344Z,1016.19
2016-05-03T08:31:19.299Z,1016.18
2016-05-03T08:32:19.286Z,1016.15
2016-05-03T08:33:19.288Z,1016.19
2016-05-03T08:34:19.073Z,1016.2
2016-05-03T08:35:19.060Z,1016.2
2016-05-03T08:36:19.265Z,1016.17
2016-05-03T08:37:19.268Z,1016.19
2016-05-03T08:38:19.256Z,1016.2
2016-05-03T08:39:19.258Z,1016.17
2016-05-03T08:40:19.245Z,1016.17
2016-05-03T08:41:19.232Z,1016.2
2016-05-03T08:42:19.031Z,1016.22
2016-05-03T08:43:19.222Z,1016.22
2016-05-03T08:44:19.226Z,1016.2
2016-05-03T08:45:19.228Z,1016.2
2016-05-03T08:46:19.214Z,1016.18
2016-05-03T08:47:19.218Z,1016.23
2016-05-03T08:48:19.204Z,1016.19
2016-05-03T08:49:18.988Z,1016.18
2016-05-03T08:50:19.194Z,1016.24
2016-05-03T08:51:18.994Z,1016.24
2016-05-03T08:52:19.183Z,1016.24
2016-05-03T08:53:19.171Z,1016.23
2016-05-03T08:54:18.970Z,1016.26
2016-05-03T08:55:18.958Z,1016.26
2016-05-03T08:56:19.164Z,1016.23
2016-05-03T08:57:19.150Z,1016.3
2016-05-03T08:58:18.950Z,1016.28
2016-05-03T08:59:19.141Z,1016.31
2016-05-03T09:00:20.080Z,1016.29
2016-05-03T09:01:18.927Z,1016.29
2016-05-03T09:02:19.132Z,1016.35
2016-05-03T09:03:19.119Z,1016.3
2016-05-03T09:04:19.122Z,1016.31
2016-05-03T09:05:18.907Z,1016.33
2016-05-03T09:06:19.096Z,1016.27
2016-05-03T09:07:19.099Z,1016.3
2016-05-03T09:08:19.102Z,1016.26
2016-05-03T09:09:19.089Z,1016.29
2016-05-03T09:10:18.873Z,1016.3
2016-05-03T09:11:18.876Z,1016.36
2016-05-03T09:12:18.863Z,1016.29
2016-05-03T09:13:19.068Z,1016.28
2016-05-03T09:14:18.868Z,1016.33
2016-05-03T09:15:19.058Z,1016.32
2016-05-03T09:16:18.842Z,1016.32
2016-05-03T09:17:18.845Z,1016.28
2016-05-03T09:18:18.831Z,1016.3
2016-05-03T09:19:18.834Z,1016.32
2016-05-03T09:20:19.025Z,1016.36
2016-05-03T09:21:19.027Z,1016.34
2016-05-03T09:22:19.014Z,1016.36
2016-05-03T09:23:18.814Z,1016.37
2016-05-03T09:24:19.005Z,1016.31
2016-05-03T09:25:19.007Z,1016.41
2016-05-03T09:26:18.791Z,1016.37
2016-05-03T09:27:18.794Z,1016.38
2016-05-03T09:28:18.781Z,1016.33
2016-05-03T09:29:18.971Z,1016.34
2016-05-03T09:30:18.974Z,1016.32
2016-05-03T09:31:18.976Z,1016.36
2016-05-03T09:32:18.760Z,1016.39
2016-05-03T09:33:18.746Z,1016.41
2016-05-03T09:34:18.953Z,1016.43
2016-05-03T09:35:18.752Z,1016.43
2016-05-03T09:36:18.943Z,1016.4
2016-05-03T09:37:18.930Z,1016.38
2016-05-03T09:38:18.932Z,1016.38
2016-05-03T09:39:18.716Z,1016.38
2016-05-03T09:40:18.719Z,1016.4
2016-05-03T09:41:18.925Z,1016.43
2016-05-03T09:42:18.709Z,1016.41
2016-05-03T09:43:18.899Z,1016.38
2016-05-03T09:44:18.699Z,1016.38
2016-05-03T09:45:18.889Z,1016.46
2016-05-03T09:46:18.892Z,1016.45
2016-05-03T09:47:18.676Z,1016.47
2016-05-03T09:48:18.897Z,1016.46
2016-05-03T09:49:18.665Z,1016.47
2016-05-03T09:50:18.870Z,1016.52
2016-05-03T09:51:18.859Z,1016.46
2016-05-03T09:52:18.656Z,1016.49
2016-05-03T09:53:18.847Z,1016.41
2016-05-03T09:54:18.644Z,1016.45
2016-05-03T09:55:18.836Z,1016.4
2016-05-03T09:56:18.634Z,1016.44
2016-05-03T09:57:18.622Z,1016.54
2016-05-03T09:58:18.828Z,1016.58
2016-05-03T09:59:18.814Z,1016.55
2016-05-03T10:00:18.802Z,1016.64
2016-05-03T10:01:18.804Z,1016.6
2016-05-03T10:02:18.605Z,1016.65
2016-05-03T10:03:18.591Z,1016.69
2016-05-03T10:04:18.593Z,1016.73
2016-05-03T10:05:18.783Z,1016.7
2016-05-03T10:06:18.583Z,1016.73
2016-05-03T10:07:18.773Z,1016.76
2016-05-03T10:08:18.776Z,1016.73
2016-05-03T10:09:18.763Z,1016.72
2016-05-03T10:10:18.750Z,1016.75
2016-05-03T10:11:18.753Z,1016.75
2016-05-03T10:12:18.756Z,1016.77
2016-05-03T10:13:18.540Z,1016.74
2016-05-03T10:14:18.729Z,1016.79
2016-05-03T10:15:18.732Z,1016.75
2016-05-03T10:16:18.517Z,1016.78
2016-05-03T10:17:18.520Z,1016.75
2016-05-03T10:18:18.506Z,1016.75
2016-05-03T10:19:18.509Z,1016.76
2016-05-03T10:20:18.698Z,1016.72
2016-05-03T10:21:18.499Z,1016.74
2016-05-03T10:22:18.501Z,1016.75
2016-05-03T10:23:18.691Z,1016.74
2016-05-03T10:24:18.475Z,1016.76
2016-05-03T10:25:18.478Z,1016.71
2016-05-03T10:26:18.465Z,1016.77
2016-05-03T10:27:18.468Z,1016.78
2016-05-03T10:28:18.658Z,1016.79
2016-05-03T10:29:18.661Z,1016.79
2016-05-03T10:30:18.445Z,1016.73
2016-05-03T10:31:18.447Z,1016.81
2016-05-03T10:32:18.435Z,1016.75
2016-05-03T10:33:18.438Z,1016.81
2016-05-03T10:34:18.424Z,1016.77
2016-05-03T10:35:18.427Z,1016.76
2016-05-03T10:36:18.617Z,1016.78
2016-05-03T10:37:18.620Z,1016.8
2016-05-03T10:38:18.404Z,1016.76
2016-05-03T10:39:18.407Z,1016.75
2016-05-03T10:40:18.394Z,1016.85
2016-05-03T10:41:18.599Z,1016.84
2016-05-03T10:42:18.383Z,1016.8
2016-05-03T10:43:18.590Z,1016.86
2016-05-03T10:44:18.373Z,1016.86
2016-05-03T10:45:18.376Z,1016.88
2016-05-03T10:46:18.566Z,1016.83
2016-05-03T10:47:18.350Z,1016.88
2016-05-03T10:48:18.556Z,1016.89
2016-05-03T10:49:18.558Z,1016.94
2016-05-03T10:50:18.342Z,1016.84
2016-05-03T10:51:18.329Z,1016.85
2016-05-03T10:52:18.535Z,1016.81
2016-05-03T10:53:18.538Z,1016.79
2016-05-03T10:54:18.322Z,1016.79
2016-05-03T10:55:18.308Z,1016.81
2016-05-03T10:56:18.312Z,1016.82
2016-05-03T10:57:18.298Z,1016.89
2016-05-03T10:58:18.301Z,1016.83
2016-05-03T10:59:18.508Z,1016.87
2016-05-03T11:00:18.494Z,1016.95
2016-05-03T11:01:18.481Z,1016.93
2016-05-03T11:02:18.281Z,1016.94
2016-05-03T11:03:18.268Z,1016.97
2016-05-03T11:04:18.474Z,1016.99
2016-05-03T11:05:18.477Z,1017.07
2016-05-03T11:06:18.260Z,1017.06
2016-05-03T11:07:18.466Z,1017.07
2016-05-03T11:08:18.250Z,1017.07
2016-05-03T11:09:18.455Z,1017.07
2016-05-03T11:10:18.241Z,1017.13
2016-05-03T11:11:18.430Z,1017.12
2016-05-03T11:12:18.229Z,1017.16
2016-05-03T11:13:18.436Z,1017.15
2016-05-03T11:14:18.218Z,1017.16
2016-05-03T11:15:18.221Z,1017.15
2016-05-03T11:16:18.412Z,1017.12
2016-05-03T11:17:18.212Z,1017.17
2016-05-03T11:18:18.402Z,1017.18
2016-05-03T11:19:18.201Z,1017.17
2016-05-03T11:20:18.392Z,1017.15
2016-05-03T11:21:18.394Z,1017.2
2016-05-03T11:22:18.382Z,1017.16
2016-05-03T11:23:18.415Z,1017.14
2016-05-03T11:24:18.371Z,1017.2
2016-05-03T11:25:18.156Z,1017.22
2016-05-03T11:26:18.158Z,1017.16
2016-05-03T11:27:18.161Z,1017.21
2016-05-03T11:28:18.148Z,1017.19
2016-05-03T11:29:18.134Z,1017.25
2016-05-03T11:30:18.341Z,1017.19
2016-05-03T11:31:18.140Z,1017.17
2016-05-03T11:32:18.330Z,1017.19
2016-05-03T11:33:18.333Z,1017.23
2016-05-03T11:34:18.320Z,1017.21
2016-05-03T11:35:18.119Z,1017.23
2016-05-03T11:36:18.310Z,1017.2
2016-05-03T11:37:18.313Z,1017.19
2016-05-03T11:38:18.096Z,1017.2
2016-05-03T11:39:18.099Z,1017.25
2016-05-03T11:40:18.289Z,1017.2
2016-05-03T11:41:18.088Z,1017.2
2016-05-03T11:42:18.077Z,1017.27
2016-05-03T11:43:18.079Z,1017.23
2016-05-03T11:44:18.066Z,1017.29
2016-05-03T11:45:18.069Z,1017.31
2016-05-03T11:46:18.055Z,1017.32
2016-05-03T11:47:18.261Z,1017.29
2016-05-03T11:48:18.045Z,1017.26
2016-05-03T11:49:18.251Z,1017.25
2016-05-03T11:50:18.051Z,1017.31
2016-05-03T11:51:18.038Z,1017.25
2016-05-03T11:52:18.228Z,1017.25
2016-05-03T11:53:18.028Z,1017.2
2016-05-03T11:54:18.217Z,1017.27
2016-05-03T11:55:18.018Z,1017.29
2016-05-03T11:56:18.207Z,1017.28
2016-05-03T11:57:18.007Z,1017.28
2016-05-03T11:58:18.197Z,1017.29
2016-05-03T11:59:18.200Z,1017.3
2016-05-03T12:00:18.203Z,1017.27
2016-05-03T12:01:18.189Z,1017.29
2016-05-03T12:02:17.974Z,1017.29
2016-05-03T12:03:18.180Z,1017.29
2016-05-03T12:04:18.166Z,1017.29
2016-05-03T12:05:18.169Z,1017.38
2016-05-03T12:06:17.953Z,1017.28
2016-05-03T12:07:18.159Z,1017.28
2016-05-03T12:08:18.162Z,1017.28